createdAt,value
2017-11-16T00:00:24.024Z,0
2017-11-16T00:01:32.653Z,0
2017-11-16T00:02:41.275Z,0
2017-11-16T00:03:50.183Z,0
2017-11-16T00:04:58.801Z,0
2017-11-16T00:06:07.436Z,0
2017-11-16T00:07:16.065Z,0
2017-11-16T00:08:24.688Z,0
2017-11-16T00:09:33.322Z,0
2017-11-16T00:10:41.946Z,0
2017-11-16T00:11:50.573Z,0
2017-11-16T00:12:59.197Z,0
2017-11-16T00:14:07.824Z,0
2017-11-16T00:15:16.458Z,0
2017-11-16T00:16:25.083Z,0
2017-11-16T00:17:33.707Z,0
2017-11-16T00:18:42.632Z,0
2017-11-16T00:19:51.258Z,0
2017-11-16T00:20:59.881Z,0
2017-11-16T00:22:08.510Z,0
2017-11-16T00:23:17.139Z,0
2017-11-16T00:24:25.763Z,0
2017-11-16T00:25:34.395Z,0
2017-11-16T00:26:43.020Z,0
2017-11-16T00:27:51.653Z,0
2017-11-16T00:29:00.276Z,0
2017-11-16T00:30:08.899Z,0
2017-11-16T00:31:17.526Z,0
2017-11-16T00:32:26.429Z,0
2017-11-16T00:33:35.049Z,0
2017-11-16T00:34:43.677Z,0
2017-11-16T00:35:52.301Z,0
2017-11-16T00:37:00.933Z,0
2017-11-16T00:38:09.553Z,0
2017-11-16T00:39:18.178Z,0
2017-11-16T00:40:26.803Z,0
2017-11-16T00:41:35.422Z,0
2017-11-16T00:42:44.053Z,0
2017-11-16T00:43:52.682Z,0
2017-11-16T00:45:01.307Z,0
2017-11-16T00:46:09.937Z,0
2017-11-16T00:47:18.568Z,0
2017-11-16T00:48:27.181Z,0
2017-11-16T00:49:35.812Z,0
2017-11-16T00:50:44.436Z,0
2017-11-16T00:51:53.054Z,0
2017-11-16T00:53:01.690Z,0
2017-11-16T00:54:10.318Z,0
2017-11-16T00:55:18.940Z,0
2017-11-16T00:56:27.575Z,0
2017-11-16T00:57:36.464Z,0
2017-11-16T00:58:45.355Z,0
2017-11-16T00:59:53.986Z,0
2017-11-16T01:01:02.604Z,0
2017-11-16T01:02:11.239Z,0
2017-11-16T01:03:20.138Z,0
2017-11-16T01:04:28.754Z,0
2017-11-16T01:05:37.380Z,0
2017-11-16T01:06:46.010Z,0
2017-11-16T01:07:54.632Z,0
2017-11-16T01:09:03.257Z,0
2017-11-16T01:10:11.889Z,0
2017-11-16T01:11:20.513Z,0
2017-11-16T01:12:29.142Z,0
2017-11-16T01:13:37.757Z,0
2017-11-16T01:14:46.413Z,0
2017-11-16T01:15:55.295Z,0
2017-11-16T01:17:03.914Z,0
2017-11-16T01:18:12.805Z,0
2017-11-16T01:19:21.436Z,0
2017-11-16T01:20:30.062Z,0
2017-11-16T01:21:38.683Z,0
2017-11-16T01:22:47.316Z,0
2017-11-16T01:23:55.938Z,0
2017-11-16T01:25:04.567Z,0
2017-11-16T01:26:13.190Z,0
2017-11-16T01:27:21.816Z,0
2017-11-16T01:28:30.448Z,0
2017-11-16T01:29:39.071Z,0
2017-11-16T01:30:47.694Z,0
2017-11-16T01:31:56.328Z,0
2017-11-16T01:33:04.946Z,0
2017-11-16T01:34:13.576Z,0
2017-11-16T01:35:22.195Z,0
2017-11-16T01:36:30.819Z,0
2017-11-16T01:37:39.451Z,0
2017-11-16T01:38:48.076Z,0
2017-11-16T01:39:56.704Z,0
2017-11-16T01:41:05.322Z,0
2017-11-16T01:42:13.952Z,0
2017-11-16T01:43:22.578Z,0
2017-11-16T01:44:31.202Z,0
2017-11-16T01:45:39.827Z,0
2017-11-16T01:46:48.460Z,0
2017-11-16T01:47:57.080Z,0
2017-11-16T01:49:05.703Z,0
2017-11-16T01:50:14.336Z,0
2017-11-16T01:51:23.234Z,0
2017-11-16T01:52:31.856Z,0
2017-11-16T01:53:40.485Z,0
2017-11-16T01:54:49.107Z,0
2017-11-16T01:55:57.741Z,0
2017-11-16T01:57:06.364Z,0
2017-11-16T01:58:14.985Z,0
2017-11-16T01:59:23.621Z,0
2017-11-16T02:00:32.241Z,0
2017-11-16T02:01:40.863Z,0
2017-11-16T02:02:49.503Z,0
2017-11-16T02:03:58.127Z,0
2017-11-16T02:05:07.008Z,0
2017-11-16T02:06:15.638Z,0
2017-11-16T02:07:24.263Z,0
2017-11-16T02:08:32.890Z,0
2017-11-16T02:09:41.511Z,0
2017-11-16T02:10:50.136Z,0
2017-11-16T02:11:58.765Z,0
2017-11-16T02:13:07.394Z,0
2017-11-16T02:14:16.279Z,0
2017-11-16T02:15:24.904Z,0
2017-11-16T02:16:33.535Z,0
2017-11-16T02:17:42.151Z,0
2017-11-16T02:18:50.775Z,0
2017-11-16T02:19:59.404Z,0
2017-11-16T02:21:08.030Z,0
2017-11-16T02:22:16.646Z,0
2017-11-16T02:23:25.278Z,0
2017-11-16T02:24:33.903Z,0
2017-11-16T02:25:42.527Z,0
2017-11-16T02:26:51.148Z,0
2017-11-16T02:27:59.775Z,0
2017-11-16T02:29:08.411Z,0
2017-11-16T02:30:17.031Z,0
2017-11-16T02:31:25.661Z,0
2017-11-16T02:32:34.286Z,0
2017-11-16T02:33:42.915Z,0
2017-11-16T02:34:51.542Z,0
2017-11-16T02:36:00.167Z,0
2017-11-16T02:37:08.788Z,0
2017-11-16T02:38:17.419Z,0
2017-11-16T02:39:26.045Z,0
2017-11-16T02:40:34.670Z,0
2017-11-16T02:41:43.289Z,0
2017-11-16T02:42:52.199Z,0
2017-11-16T02:44:00.824Z,0
2017-11-16T02:45:09.446Z,0
2017-11-16T02:46:18.077Z,0
2017-11-16T02:47:26.713Z,0
2017-11-16T02:48:35.322Z,0
2017-11-16T02:49:44.217Z,0
2017-11-16T02:50:52.852Z,0
2017-11-16T02:52:01.741Z,0
2017-11-16T02:53:10.636Z,0
2017-11-16T02:54:19.262Z,0
2017-11-16T02:55:27.882Z,0
2017-11-16T02:56:36.508Z,0
2017-11-16T02:57:45.128Z,0
2017-11-16T02:58:53.753Z,0
2017-11-16T03:00:02.391Z,0
2017-11-16T03:01:11.013Z,0
2017-11-16T03:02:19.913Z,0
2017-11-16T03:03:28.542Z,0
2017-11-16T03:04:37.431Z,0
2017-11-16T03:05:46.056Z,0
2017-11-16T03:06:54.682Z,0
2017-11-16T03:08:03.298Z,0
2017-11-16T03:09:11.926Z,0
2017-11-16T03:10:20.554Z,0
2017-11-16T03:11:29.171Z,0
2017-11-16T03:12:37.804Z,0
2017-11-16T03:13:46.430Z,0
2017-11-16T03:14:55.048Z,0
2017-11-16T03:16:03.688Z,0
2017-11-16T03:17:12.305Z,0
2017-11-16T03:18:20.923Z,0
2017-11-16T03:19:29.550Z,0
2017-11-16T03:20:38.178Z,0
2017-11-16T03:21:46.795Z,0
2017-11-16T03:22:55.428Z,0
2017-11-16T03:24:04.053Z,0
2017-11-16T03:25:12.683Z,0
2017-11-16T03:26:21.309Z,0
2017-11-16T03:27:29.944Z,0
2017-11-16T03:28:38.553Z,0
2017-11-16T03:29:47.181Z,0
2017-11-16T03:30:55.821Z,0
2017-11-16T03:32:04.442Z,0
2017-11-16T03:33:13.062Z,0
2017-11-16T03:34:21.686Z,0
2017-11-16T03:35:30.314Z,0
2017-11-16T03:36:38.933Z,0
2017-11-16T03:37:47.560Z,0
2017-11-16T03:38:56.181Z,0
2017-11-16T03:40:04.810Z,0
2017-11-16T03:41:13.436Z,0
2017-11-16T03:42:22.057Z,0
2017-11-16T03:43:30.688Z,0
2017-11-16T03:44:39.579Z,0
2017-11-16T03:45:48.197Z,0
2017-11-16T03:46:56.824Z,0
2017-11-16T03:48:05.451Z,0
2017-11-16T03:49:14.074Z,0
2017-11-16T03:50:22.697Z,0
2017-11-16T03:51:31.324Z,0
2017-11-16T03:52:39.948Z,0
2017-11-16T03:53:48.578Z,0
2017-11-16T03:54:57.198Z,0
2017-11-16T03:56:05.825Z,0
2017-11-16T03:57:14.453Z,0
2017-11-16T03:58:23.068Z,0
2017-11-16T03:59:31.695Z,0
2017-11-16T04:00:40.328Z,0
2017-11-16T04:01:48.959Z,0
2017-11-16T04:02:57.579Z,0
2017-11-16T04:04:06.210Z,0
2017-11-16T04:05:14.861Z,0
2017-11-16T04:06:23.458Z,0
2017-11-16T04:07:32.077Z,0
2017-11-16T04:08:40.713Z,0
2017-11-16T04:09:49.341Z,0
2017-11-16T04:10:57.962Z,0
2017-11-16T04:12:06.584Z,0
2017-11-16T04:13:15.495Z,0
2017-11-16T04:14:24.117Z,0
2017-11-16T04:15:32.754Z,0
2017-11-16T04:16:41.365Z,0
2017-11-16T04:17:49.985Z,0
2017-11-16T04:18:58.612Z,0
2017-11-16T04:20:07.242Z,0
2017-11-16T04:21:15.862Z,0
2017-11-16T04:22:24.490Z,0
2017-11-16T04:23:33.118Z,0
2017-11-16T04:24:41.744Z,0
2017-11-16T04:25:50.377Z,0
2017-11-16T04:26:59.002Z,0
2017-11-16T04:28:07.623Z,0
2017-11-16T04:29:16.246Z,0
2017-11-16T04:30:25.136Z,0
2017-11-16T04:31:33.770Z,0
2017-11-16T04:32:42.393Z,0
2017-11-16T04:33:51.013Z,0
2017-11-16T04:34:59.641Z,0
2017-11-16T04:36:08.264Z,0
2017-11-16T04:37:16.892Z,0
2017-11-16T04:38:25.516Z,0
2017-11-16T04:39:34.138Z,0
2017-11-16T04:40:43.044Z,0
2017-11-16T04:41:51.675Z,0
2017-11-16T04:43:00.298Z,0
2017-11-16T04:44:08.930Z,0
2017-11-16T04:45:17.816Z,0
2017-11-16T04:46:26.704Z,0
2017-11-16T04:47:35.331Z,0
2017-11-16T04:48:43.970Z,0
2017-11-16T04:49:52.580Z,0
2017-11-16T04:51:01.209Z,0
2017-11-16T04:52:09.827Z,0
2017-11-16T04:53:18.458Z,0
2017-11-16T04:54:27.367Z,0
2017-11-16T04:55:35.993Z,0
2017-11-16T04:56:44.620Z,0
2017-11-16T04:57:53.250Z,0
2017-11-16T04:59:01.869Z,0
2017-11-16T05:00:10.769Z,0
2017-11-16T05:01:19.397Z,0
2017-11-16T05:02:28.016Z,0
2017-11-16T05:03:36.645Z,0
2017-11-16T05:04:45.275Z,0
2017-11-16T05:05:53.898Z,0
2017-11-16T05:07:02.529Z,0
2017-11-16T05:08:11.147Z,0
2017-11-16T05:09:19.780Z,0
2017-11-16T05:10:28.404Z,0
2017-11-16T05:11:37.024Z,0
2017-11-16T05:12:45.650Z,0
2017-11-16T05:13:54.548Z,0
2017-11-16T05:15:03.173Z,0
2017-11-16T05:16:11.793Z,0
2017-11-16T05:17:20.427Z,0
2017-11-16T05:18:29.043Z,0
2017-11-16T05:19:37.936Z,0
2017-11-16T05:20:46.553Z,0
2017-11-16T05:21:55.181Z,0
2017-11-16T05:23:03.809Z,0
2017-11-16T05:24:12.441Z,0
2017-11-16T05:25:21.061Z,0
2017-11-16T05:26:29.689Z,0
2017-11-16T05:27:38.315Z,0
2017-11-16T05:28:47.468Z,0
2017-11-16T05:29:56.347Z,0
2017-11-16T05:31:04.979Z,0
2017-11-16T05:32:13.870Z,0
2017-11-16T05:33:22.494Z,0
2017-11-16T05:34:31.123Z,0
2017-11-16T05:35:40.025Z,0
2017-11-16T05:36:48.642Z,0
2017-11-16T05:37:57.546Z,0
2017-11-16T05:39:06.160Z,0
2017-11-16T05:40:14.789Z,0
2017-11-16T05:41:23.416Z,0
2017-11-16T05:42:32.039Z,0
2017-11-16T05:43:40.664Z,0
2017-11-16T05:44:49.296Z,0
2017-11-16T05:45:57.921Z,0
2017-11-16T05:47:06.544Z,0
2017-11-16T05:48:15.177Z,0
2017-11-16T05:49:23.795Z,0
2017-11-16T05:50:32.423Z,0
2017-11-16T05:51:41.045Z,0
2017-11-16T05:52:49.670Z,0
2017-11-16T05:53:58.313Z,0
2017-11-16T05:55:06.922Z,0
2017-11-16T05:56:15.545Z,0
2017-11-16T05:57:24.175Z,0
2017-11-16T05:58:33.070Z,0
2017-11-16T05:59:41.694Z,0
2017-11-16T06:00:50.322Z,0
2017-11-16T06:01:58.952Z,0
2017-11-16T06:03:07.572Z,0
2017-11-16T06:04:16.199Z,0
2017-11-16T06:05:24.824Z,0
2017-11-16T06:06:33.457Z,0
2017-11-16T06:07:42.082Z,0
2017-11-16T06:08:50.705Z,0
2017-11-16T06:09:59.332Z,0
2017-11-16T06:11:07.961Z,0
2017-11-16T06:12:16.578Z,0
2017-11-16T06:13:25.203Z,0
2017-11-16T06:14:33.837Z,0
2017-11-16T06:15:42.455Z,0
2017-11-16T06:16:51.082Z,0
2017-11-16T06:17:59.708Z,0
2017-11-16T06:19:08.337Z,0
2017-11-16T06:20:16.967Z,0
2017-11-16T06:21:25.848Z,0
2017-11-16T06:22:34.468Z,0
2017-11-16T06:23:43.099Z,0
2017-11-16T06:24:51.719Z,0
2017-11-16T06:26:00.348Z,0
2017-11-16T06:27:08.970Z,0
2017-11-16T06:28:17.600Z,0
2017-11-16T06:29:26.223Z,0
2017-11-16T06:30:34.841Z,0
2017-11-16T06:31:43.470Z,0
2017-11-16T06:32:52.093Z,0
2017-11-16T06:34:00.721Z,0
2017-11-16T06:35:09.347Z,0
2017-11-16T06:36:17.973Z,0
2017-11-16T06:37:26.597Z,0
2017-11-16T06:38:35.229Z,0
2017-11-16T06:39:43.848Z,0
2017-11-16T06:40:52.477Z,0
2017-11-16T06:42:01.097Z,0
2017-11-16T06:43:09.717Z,0
2017-11-16T06:44:18.355Z,0
2017-11-16T06:45:26.971Z,0
2017-11-16T06:46:35.594Z,0
2017-11-16T06:47:44.225Z,0
2017-11-16T06:48:52.842Z,0
2017-11-16T06:50:01.468Z,0
2017-11-16T06:51:10.097Z,0
2017-11-16T06:52:18.710Z,0
2017-11-16T06:53:27.338Z,0
2017-11-16T06:54:35.966Z,0
2017-11-16T06:55:44.852Z,0
2017-11-16T06:56:53.474Z,0
2017-11-16T06:58:02.112Z,0
2017-11-16T06:59:10.746Z,0
2017-11-16T07:00:19.631Z,0
2017-11-16T07:01:28.265Z,5
2017-11-16T07:02:36.893Z,5
2017-11-16T07:03:45.512Z,5
2017-11-16T07:04:54.400Z,5
2017-11-16T07:06:03.018Z,5
2017-11-16T07:07:11.655Z,5
2017-11-16T07:08:20.274Z,5
2017-11-16T07:09:28.894Z,5
2017-11-16T07:10:37.524Z,10
2017-11-16T07:11:46.150Z,10
2017-11-16T07:12:54.772Z,10
2017-11-16T07:14:03.409Z,10
2017-11-16T07:15:12.025Z,15
2017-11-16T07:16:20.642Z,15
2017-11-16T07:17:29.268Z,15
2017-11-16T07:18:38.168Z,15
2017-11-16T07:19:47.064Z,15
2017-11-16T07:20:55.690Z,20
2017-11-16T07:22:04.852Z,20
2017-11-16T07:23:13.477Z,20
2017-11-16T07:24:22.097Z,20
2017-11-16T07:25:30.731Z,20
2017-11-16T07:26:39.349Z,20
2017-11-16T07:27:47.971Z,20
2017-11-16T07:28:56.601Z,20
2017-11-16T07:30:05.228Z,20
2017-11-16T07:31:14.261Z,20
2017-11-16T07:32:22.929Z,20
2017-11-16T07:33:31.830Z,20
2017-11-16T07:34:40.447Z,20
2017-11-16T07:35:49.072Z,20
2017-11-16T07:36:57.691Z,15
2017-11-16T07:38:06.628Z,20
2017-11-16T07:39:15.249Z,20
2017-11-16T07:40:23.871Z,20
2017-11-16T07:41:32.498Z,25
2017-11-16T07:42:41.124Z,25
2017-11-16T07:43:50.017Z,25
2017-11-16T07:44:58.642Z,25
2017-11-16T07:46:07.267Z,25
2017-11-16T07:47:15.896Z,30
2017-11-16T07:48:24.522Z,30
2017-11-16T07:49:33.145Z,30
2017-11-16T07:50:41.773Z,30
2017-11-16T07:51:50.399Z,30
2017-11-16T07:52:59.017Z,30
2017-11-16T07:54:07.646Z,30
2017-11-16T07:55:16.269Z,30
2017-11-16T07:56:24.897Z,30
2017-11-16T07:57:33.788Z,30
2017-11-16T07:58:43.275Z,30
2017-11-16T07:59:52.174Z,30
2017-11-16T08:01:00.791Z,30
2017-11-16T08:02:09.423Z,35
2017-11-16T08:03:18.047Z,40
2017-11-16T08:04:26.668Z,45
2017-11-16T08:05:35.301Z,45
2017-11-16T08:06:43.928Z,50
2017-11-16T08:07:52.548Z,55
2017-11-16T08:09:01.172Z,55
2017-11-16T08:10:09.800Z,55
2017-11-16T08:11:18.416Z,55
2017-11-16T08:12:27.045Z,55
2017-11-16T08:13:35.936Z,55
2017-11-16T08:14:44.824Z,50
2017-11-16T08:15:53.452Z,45
2017-11-16T08:17:02.073Z,45
2017-11-16T08:18:10.702Z,45
2017-11-16T08:19:19.333Z,40
2017-11-16T08:20:27.946Z,40
2017-11-16T08:21:36.574Z,35
2017-11-16T08:22:45.197Z,35
2017-11-16T08:23:53.831Z,40
2017-11-16T08:25:02.452Z,45
2017-11-16T08:26:11.076Z,45
2017-11-16T08:27:20.416Z,45
2017-11-16T08:28:29.336Z,45
2017-11-16T08:29:37.960Z,45
2017-11-16T08:30:46.585Z,45
2017-11-16T08:31:55.208Z,45
2017-11-16T08:33:05.470Z,50
2017-11-16T08:34:14.094Z,50
2017-11-16T08:35:22.717Z,50
2017-11-16T08:36:31.346Z,50
2017-11-16T08:37:39.972Z,55
2017-11-16T08:38:48.589Z,55
2017-11-16T08:39:57.224Z,55
2017-11-16T08:41:05.850Z,55
2017-11-16T08:42:14.472Z,55
2017-11-16T08:43:23.097Z,55
2017-11-16T08:44:31.729Z,55
2017-11-16T08:45:40.357Z,55
2017-11-16T08:46:48.985Z,60
2017-11-16T08:47:57.605Z,60
2017-11-16T08:49:06.234Z,60
2017-11-16T08:50:14.858Z,60
2017-11-16T08:51:23.475Z,60
2017-11-16T08:52:32.104Z,60
2017-11-16T08:53:41.021Z,60
2017-11-16T08:54:49.645Z,55
2017-11-16T08:55:58.271Z,55
2017-11-16T08:57:06.901Z,55
2017-11-16T08:58:15.784Z,50
2017-11-16T08:59:24.414Z,50
2017-11-16T09:00:33.031Z,50
2017-11-16T09:01:41.670Z,50
2017-11-16T09:02:50.291Z,50
2017-11-16T09:03:58.914Z,55
2017-11-16T09:05:07.537Z,60
2017-11-16T09:06:16.171Z,60
2017-11-16T09:07:26.802Z,65
2017-11-16T09:08:35.692Z,70
2017-11-16T09:09:44.594Z,75
2017-11-16T09:10:53.481Z,75
2017-11-16T09:12:02.108Z,70
2017-11-16T09:13:10.743Z,70
2017-11-16T09:14:19.359Z,65
2017-11-16T09:15:27.993Z,65
2017-11-16T09:16:36.614Z,65
2017-11-16T09:17:45.239Z,60
2017-11-16T09:18:53.873Z,60
2017-11-16T09:20:02.501Z,65
2017-11-16T09:21:11.122Z,60
2017-11-16T09:22:20.012Z,60
2017-11-16T09:23:29.439Z,60
2017-11-16T09:24:38.072Z,65
2017-11-16T09:25:46.695Z,70
2017-11-16T09:26:55.316Z,75
2017-11-16T09:28:04.487Z,75
2017-11-16T09:29:13.107Z,75
2017-11-16T09:30:21.775Z,80
2017-11-16T09:31:30.361Z,85
2017-11-16T09:32:39.251Z,85
2017-11-16T09:33:48.150Z,90
2017-11-16T09:34:56.777Z,90
2017-11-16T09:36:05.397Z,90
2017-11-16T09:37:14.038Z,90
2017-11-16T09:38:22.921Z,90
2017-11-16T09:39:31.543Z,95
2017-11-16T09:40:40.172Z,95
2017-11-16T09:41:48.807Z,95
2017-11-16T09:42:57.420Z,95
2017-11-16T09:44:06.046Z,100
2017-11-16T09:45:14.671Z,100
2017-11-16T09:46:23.585Z,105
2017-11-16T09:47:32.211Z,105
2017-11-16T09:48:41.126Z,105
2017-11-16T09:49:50.025Z,110
2017-11-16T09:50:58.652Z,110
2017-11-16T09:52:07.273Z,115
2017-11-16T09:53:15.902Z,115
2017-11-16T09:54:24.534Z,115
2017-11-16T09:55:33.149Z,120
2017-11-16T09:56:42.065Z,120
2017-11-16T09:57:50.691Z,120
2017-11-16T09:58:59.473Z,120
2017-11-16T10:00:08.095Z,125
2017-11-16T10:01:16.715Z,125
2017-11-16T10:02:25.620Z,125
2017-11-16T10:03:34.253Z,125
2017-11-16T10:04:43.210Z,130
2017-11-16T10:05:51.838Z,130
2017-11-16T10:07:00.466Z,130
2017-11-16T10:08:09.099Z,130
2017-11-16T10:09:17.714Z,130
2017-11-16T10:10:26.350Z,130
2017-11-16T10:11:34.971Z,125
2017-11-16T10:12:43.598Z,125
2017-11-16T10:13:52.216Z,125
2017-11-16T10:15:00.846Z,125
2017-11-16T10:16:09.474Z,120
2017-11-16T10:17:18.112Z,120
2017-11-16T10:18:26.746Z,120
2017-11-16T10:19:35.379Z,115
2017-11-16T10:20:44.005Z,120
2017-11-16T10:21:52.634Z,120
2017-11-16T10:23:01.252Z,120
2017-11-16T10:24:09.973Z,120
2017-11-16T10:25:18.845Z,115
2017-11-16T10:26:27.687Z,110
2017-11-16T10:27:36.320Z,110
2017-11-16T10:28:44.941Z,110
2017-11-16T10:29:53.758Z,105
2017-11-16T10:31:02.395Z,105
2017-11-16T10:32:11.292Z,105
2017-11-16T10:33:19.922Z,105
2017-11-16T10:34:28.776Z,105
2017-11-16T10:35:37.428Z,110
2017-11-16T10:36:46.060Z,115
2017-11-16T10:37:54.722Z,125
2017-11-16T10:39:03.352Z,125
2017-11-16T10:40:11.976Z,120
2017-11-16T10:41:20.610Z,115
2017-11-16T10:42:29.297Z,115
2017-11-16T10:43:37.926Z,115
2017-11-16T10:44:46.562Z,110
2017-11-16T10:45:55.323Z,100
2017-11-16T10:47:04.391Z,100
2017-11-16T10:48:13.034Z,95
2017-11-16T10:49:21.657Z,90
2017-11-16T10:50:30.288Z,95
2017-11-16T10:51:38.914Z,95
2017-11-16T10:52:47.535Z,95
2017-11-16T10:53:56.446Z,95
2017-11-16T10:55:05.075Z,100
2017-11-16T10:56:13.693Z,100
2017-11-16T10:57:22.319Z,105
2017-11-16T10:58:30.953Z,115
2017-11-16T10:59:39.580Z,120
2017-11-16T11:00:48.207Z,115
2017-11-16T11:01:56.829Z,105
2017-11-16T11:03:05.459Z,100
2017-11-16T11:04:14.088Z,90
2017-11-16T11:05:22.707Z,85
2017-11-16T11:06:31.607Z,90
2017-11-16T11:07:40.506Z,90
2017-11-16T11:08:49.123Z,95
2017-11-16T11:09:57.751Z,100
2017-11-16T11:11:06.380Z,100
2017-11-16T11:12:15.008Z,115
2017-11-16T11:13:23.898Z,130
2017-11-16T11:14:32.522Z,135
2017-11-16T11:15:41.145Z,135
2017-11-16T11:16:49.784Z,135
2017-11-16T11:17:58.666Z,130
2017-11-16T11:19:07.294Z,130
2017-11-16T11:20:15.919Z,130
2017-11-16T11:21:24.548Z,130
2017-11-16T11:22:33.179Z,130
2017-11-16T11:23:41.794Z,135
2017-11-16T11:24:50.423Z,145
2017-11-16T11:25:59.046Z,150
2017-11-16T11:27:07.678Z,155
2017-11-16T11:28:16.302Z,150
2017-11-16T11:29:25.193Z,150
2017-11-16T11:30:33.826Z,155
2017-11-16T11:31:42.450Z,150
2017-11-16T11:32:51.071Z,150
2017-11-16T11:33:59.703Z,150
2017-11-16T11:35:08.334Z,150
2017-11-16T11:36:17.221Z,145
2017-11-16T11:37:25.850Z,135
2017-11-16T11:38:34.479Z,130
2017-11-16T11:39:43.104Z,130
2017-11-16T11:40:51.739Z,125
2017-11-16T11:42:00.357Z,125
2017-11-16T11:43:09.254Z,120
2017-11-16T11:44:17.885Z,120
2017-11-16T11:45:26.500Z,125
2017-11-16T11:46:35.133Z,125
2017-11-16T11:47:43.761Z,125
2017-11-16T11:48:52.389Z,125
2017-11-16T11:50:01.020Z,125
2017-11-16T11:51:09.640Z,135
2017-11-16T11:52:18.266Z,125
2017-11-16T11:53:27.167Z,125
2017-11-16T11:54:36.059Z,120
2017-11-16T11:55:44.691Z,115
2017-11-16T11:56:53.310Z,110
2017-11-16T11:58:01.938Z,110
2017-11-16T11:59:10.838Z,110
2017-11-16T12:00:19.459Z,110
2017-11-16T12:01:28.087Z,115
2017-11-16T12:02:36.713Z,110
2017-11-16T12:03:45.342Z,110
2017-11-16T12:04:53.963Z,115
2017-11-16T12:06:02.595Z,115
2017-11-16T12:07:11.220Z,120
2017-11-16T12:08:19.844Z,125
2017-11-16T12:09:28.478Z,130
2017-11-16T12:10:37.104Z,130
2017-11-16T12:11:45.731Z,130
2017-11-16T12:12:54.351Z,125
2017-11-16T12:14:02.980Z,120
2017-11-16T12:15:11.608Z,120
2017-11-16T12:16:20.233Z,115
2017-11-16T12:17:28.867Z,115
2017-11-16T12:18:37.486Z,110
2017-11-16T12:19:46.113Z,110
2017-11-16T12:20:54.743Z,105
2017-11-16T12:22:03.362Z,105
2017-11-16T12:23:11.992Z,100
2017-11-16T12:24:20.626Z,100
2017-11-16T12:25:29.534Z,100
2017-11-16T12:26:38.161Z,100
2017-11-16T12:27:46.783Z,100
2017-11-16T12:28:55.675Z,100
2017-11-16T12:30:04.307Z,105
2017-11-16T12:31:12.930Z,105
2017-11-16T12:32:21.557Z,105
2017-11-16T12:33:30.186Z,105
2017-11-16T12:34:38.809Z,105
2017-11-16T12:35:47.434Z,105
2017-11-16T12:36:56.073Z,100
2017-11-16T12:38:04.686Z,100
2017-11-16T12:39:13.314Z,95
2017-11-16T12:40:21.933Z,95
2017-11-16T12:41:30.851Z,95
2017-11-16T12:42:39.478Z,95
2017-11-16T12:43:48.102Z,95
2017-11-16T12:44:56.722Z,95
2017-11-16T12:46:05.632Z,100
2017-11-16T12:47:14.252Z,100
2017-11-16T12:48:23.139Z,105
2017-11-16T12:49:31.773Z,105
2017-11-16T12:50:40.404Z,105
2017-11-16T12:51:49.033Z,105
2017-11-16T12:52:57.655Z,105
2017-11-16T12:54:06.276Z,105
2017-11-16T12:55:14.906Z,105
2017-11-16T12:56:23.532Z,105
2017-11-16T12:57:32.153Z,105
2017-11-16T12:58:41.071Z,105
2017-11-16T12:59:49.696Z,105
2017-11-16T13:00:58.315Z,105
2017-11-16T13:02:06.944Z,105
2017-11-16T13:03:15.574Z,110
2017-11-16T13:04:24.191Z,115
2017-11-16T13:05:32.823Z,115
2017-11-16T13:06:41.445Z,115
2017-11-16T13:07:50.331Z,115
2017-11-16T13:08:58.964Z,115
2017-11-16T13:10:07.585Z,115
2017-11-16T13:11:16.213Z,115
2017-11-16T13:12:24.848Z,115
2017-11-16T13:13:33.461Z,115
2017-11-16T13:14:42.093Z,110
2017-11-16T13:15:50.721Z,110
2017-11-16T13:16:59.347Z,110
2017-11-16T13:18:07.977Z,105
2017-11-16T13:19:16.605Z,100
2017-11-16T13:20:25.229Z,95
2017-11-16T13:21:33.858Z,90
2017-11-16T13:22:42.486Z,90
2017-11-16T13:23:51.106Z,80
2017-11-16T13:24:59.737Z,75
2017-11-16T13:26:08.365Z,70
2017-11-16T13:27:16.991Z,70
2017-11-16T13:28:25.612Z,70
2017-11-16T13:29:34.243Z,65
2017-11-16T13:30:42.872Z,60
2017-11-16T13:31:51.497Z,60
2017-11-16T13:33:00.121Z,60
2017-11-16T13:34:08.754Z,60
2017-11-16T13:35:17.373Z,65
2017-11-16T13:36:26.001Z,70
2017-11-16T13:37:34.628Z,75
2017-11-16T13:38:43.259Z,75
2017-11-16T13:39:51.887Z,75
2017-11-16T13:41:00.779Z,75
2017-11-16T13:42:09.405Z,75
2017-11-16T13:43:18.035Z,75
2017-11-16T13:44:26.657Z,75
2017-11-16T13:45:35.286Z,75
2017-11-16T13:46:43.920Z,70
2017-11-16T13:47:52.805Z,70
2017-11-16T13:49:01.430Z,65
2017-11-16T13:50:10.063Z,65
2017-11-16T13:51:18.688Z,65
2017-11-16T13:52:27.312Z,65
2017-11-16T13:53:35.936Z,65
2017-11-16T13:54:44.563Z,70
2017-11-16T13:55:53.195Z,70
2017-11-16T13:57:01.816Z,70
2017-11-16T13:58:10.443Z,70
2017-11-16T13:59:19.905Z,70
2017-11-16T14:00:28.528Z,65
2017-11-16T14:01:37.415Z,65
2017-11-16T14:02:46.050Z,60
2017-11-16T14:03:54.671Z,60
2017-11-16T14:05:03.303Z,60
2017-11-16T14:06:11.925Z,55
2017-11-16T14:07:20.543Z,50
2017-11-16T14:08:29.177Z,50
2017-11-16T14:09:37.799Z,50
2017-11-16T14:10:46.429Z,50
2017-11-16T14:11:55.062Z,50
2017-11-16T14:13:03.689Z,45
2017-11-16T14:14:12.313Z,45
2017-11-16T14:15:20.936Z,45
2017-11-16T14:16:29.837Z,45
2017-11-16T14:17:39.005Z,40
2017-11-16T14:18:47.632Z,40
2017-11-16T14:19:56.257Z,40
2017-11-16T14:21:04.889Z,40
2017-11-16T14:22:13.507Z,35
2017-11-16T14:23:22.139Z,30
2017-11-16T14:24:30.772Z,30
2017-11-16T14:25:39.395Z,30
2017-11-16T14:26:48.020Z,30
2017-11-16T14:27:56.646Z,30
2017-11-16T14:29:05.270Z,35
2017-11-16T14:30:13.904Z,35
2017-11-16T14:31:22.533Z,35
2017-11-16T14:32:31.154Z,35
2017-11-16T14:33:39.789Z,35
2017-11-16T14:34:48.412Z,35
2017-11-16T14:35:57.046Z,35
2017-11-16T14:37:05.659Z,35
2017-11-16T14:38:14.550Z,35
2017-11-16T14:39:23.458Z,35
2017-11-16T14:40:32.078Z,30
2017-11-16T14:41:40.705Z,30
2017-11-16T14:42:49.334Z,25
2017-11-16T14:43:57.962Z,25
2017-11-16T14:45:06.574Z,20
2017-11-16T14:46:15.207Z,20
2017-11-16T14:47:23.836Z,15
2017-11-16T14:48:32.721Z,15
2017-11-16T14:49:41.348Z,15
2017-11-16T14:50:49.976Z,15
2017-11-16T14:51:58.864Z,15
2017-11-16T14:53:07.493Z,15
2017-11-16T14:54:16.122Z,15
2017-11-16T14:55:24.745Z,15
2017-11-16T14:56:33.372Z,15
2017-11-16T14:57:42.258Z,15
2017-11-16T14:58:50.883Z,15
2017-11-16T14:59:59.513Z,15
2017-11-16T15:01:08.135Z,15
2017-11-16T15:02:16.753Z,10
2017-11-16T15:03:25.385Z,10
2017-11-16T15:04:34.020Z,10
2017-11-16T15:05:42.639Z,10
2017-11-16T15:06:51.257Z,10
2017-11-16T15:07:59.885Z,5
2017-11-16T15:09:08.525Z,5
2017-11-16T15:10:17.143Z,5
2017-11-16T15:11:25.777Z,5
2017-11-16T15:12:34.670Z,5
2017-11-16T15:13:43.292Z,5
2017-11-16T15:14:52.189Z,5
2017-11-16T15:16:00.807Z,5
2017-11-16T15:17:09.446Z,5
2017-11-16T15:18:18.065Z,5
2017-11-16T15:19:26.685Z,5
2017-11-16T15:20:35.324Z,5
2017-11-16T15:21:43.940Z,0
2017-11-16T15:22:52.569Z,0
2017-11-16T15:24:01.200Z,0
2017-11-16T15:25:09.820Z,0
2017-11-16T15:26:18.450Z,0
2017-11-16T15:27:27.076Z,0
2017-11-16T15:28:35.700Z,0
2017-11-16T15:29:44.323Z,0
2017-11-16T15:30:52.958Z,0
2017-11-16T15:32:01.579Z,0
2017-11-16T15:33:10.209Z,0
2017-11-16T15:34:18.837Z,0
2017-11-16T15:35:27.457Z,0
2017-11-16T15:36:36.083Z,0
2017-11-16T15:37:44.713Z,0
2017-11-16T15:38:53.336Z,0
2017-11-16T15:40:01.969Z,0
2017-11-16T15:41:10.593Z,0
2017-11-16T15:42:19.220Z,0
2017-11-16T15:43:27.850Z,0
2017-11-16T15:44:36.479Z,0
2017-11-16T15:45:45.108Z,0
2017-11-16T15:46:53.730Z,0
2017-11-16T15:48:02.390Z,0
2017-11-16T15:49:11.253Z,0
2017-11-16T15:50:19.881Z,0
2017-11-16T15:51:28.512Z,0
2017-11-16T15:52:37.128Z,0
2017-11-16T15:53:45.753Z,0
2017-11-16T15:54:54.651Z,0
2017-11-16T15:56:03.274Z,0
2017-11-16T15:57:11.898Z,0
2017-11-16T15:58:20.534Z,0
2017-11-16T15:59:29.415Z,0
2017-11-16T16:00:38.039Z,0
2017-11-16T16:01:46.668Z,0
2017-11-16T16:02:55.291Z,0
2017-11-16T16:04:03.914Z,0
2017-11-16T16:05:12.542Z,0
2017-11-16T16:06:21.163Z,0
2017-11-16T16:07:29.794Z,0
2017-11-16T16:08:38.417Z,0
2017-11-16T16:09:47.047Z,0
2017-11-16T16:10:55.676Z,0
2017-11-16T16:12:04.293Z,0
2017-11-16T16:13:12.924Z,0
2017-11-16T16:14:21.552Z,0
2017-11-16T16:15:30.173Z,0
2017-11-16T16:16:38.804Z,0
2017-11-16T16:17:47.428Z,0
2017-11-16T16:18:56.328Z,0
2017-11-16T16:20:04.961Z,0
2017-11-16T16:21:13.845Z,0
2017-11-16T16:22:22.480Z,0
2017-11-16T16:23:31.107Z,0
2017-11-16T16:24:39.728Z,0
2017-11-16T16:25:48.363Z,0
2017-11-16T16:26:57.264Z,0
2017-11-16T16:28:05.872Z,0
2017-11-16T16:29:14.507Z,0
2017-11-16T16:30:23.128Z,0